createdAt,value
2023-04-06T00:02:04.114Z,67146.03
2023-04-06T00:04:31.438Z,67185.72
2023-04-06T00:06:58.531Z,67186.09
2023-04-06T00:09:25.897Z,67183.06
2023-04-06T00:11:52.987Z,67184.25
2023-04-06T00:14:20.401Z,67191.72
2023-04-06T00:16:47.822Z,67192.84
2023-04-06T00:19:15.267Z,67188.13
2023-04-06T00:21:42.551Z,67147.16
2023-04-06T00:24:09.915Z,67188.34
2023-04-06T00:26:40.034Z,67185.72
2023-04-06T00:29:10.821Z,67187.22
2023-04-06T00:31:38.514Z,67192.25
2023-04-06T00:34:09.943Z,67190.25
2023-04-06T00:36:37.023Z,67190.56
2023-04-06T00:39:07.223Z,67142.66
2023-04-06T00:41:34.517Z,67171.88
2023-04-06T00:44:01.642Z,67172.59
2023-04-06T00:46:29.408Z,67167.97
2023-04-06T00:48:58.004Z,67129.88
2023-04-06T00:51:26.303Z,67169.81
2023-04-06T00:53:53.364Z,67161.59
2023-04-06T00:56:20.898Z,67169.03
2023-04-06T00:58:54.074Z,67159.47
2023-04-06T01:01:21.356Z,67153.50
2023-04-06T01:03:51.592Z,67155.19
2023-04-06T01:06:23.258Z,67155.75
2023-04-06T01:08:58.688Z,67152.38
2023-04-06T01:11:27.755Z,67152.16
2023-04-06T01:13:55.752Z,67151.63
2023-04-06T01:16:43.505Z,67102.78
2023-04-06T01:19:16.779Z,67108.75
2023-04-06T01:21:51.664Z,67098.31
2023-04-06T01:24:45.370Z,67140.03
2023-04-06T01:27:20.501Z,67137.78
2023-04-06T01:30:03.928Z,67137.56
2023-04-06T01:32:43.182Z,67133.84
2023-04-06T01:35:13.817Z,67131.03
2023-04-06T01:37:48.278Z,67127.66
2023-04-06T01:40:23.849Z,67124.28
2023-04-06T01:42:53.363Z,67074.16
2023-04-06T01:45:30.564Z,67122.97
2023-04-06T01:48:04.979Z,67076.97
2023-04-06T01:50:32.549Z,67074.16
2023-04-06T01:52:59.936Z,67129.34
2023-04-06T01:55:29.360Z,67115.72
2023-04-06T01:58:19.241Z,67118.13
2023-04-06T02:00:46.763Z,67115.84
2023-04-06T02:03:15.768Z,67112.50
2023-04-06T02:05:43.607Z,67059.56
2023-04-06T02:08:23.680Z,67106.66
2023-04-06T02:10:50.814Z,67061.81
2023-04-06T02:13:27.458Z,67097.91
2023-04-06T02:15:56.112Z,67093.75
2023-04-06T02:18:23.772Z,67090.59
2023-04-06T02:20:56.843Z,67089.47
2023-04-06T02:23:27.739Z,67084.97
2023-04-06T02:25:56.909Z,67029.84
2023-04-06T02:28:24.659Z,67070.94
2023-04-06T02:30:51.977Z,67019.53
2023-04-06T02:33:20.871Z,67018.41
2023-04-06T02:35:48.733Z,67065.13
2023-04-06T02:38:16.444Z,67063.09
2023-04-06T02:40:44.193Z,67015.25
2023-04-06T02:43:21.611Z,67015.03
2023-04-06T02:45:51.699Z,67055.22
2023-04-06T02:48:21.247Z,67047.56
2023-04-06T02:50:50.333Z,67041.97
2023-04-06T02:53:17.637Z,67043.44
2023-04-06T02:55:47.537Z,66997.06
2023-04-06T02:58:15.426Z,67036.72
2023-04-06T03:00:50.510Z,66984.63
2023-04-06T03:03:17.895Z,67042.88
2023-04-06T03:05:46.444Z,67038.38
2023-04-06T03:08:15.050Z,67028.84
2023-04-06T03:10:51.107Z,66973.19
2023-04-06T03:13:19.384Z,67022.13
2023-04-06T03:15:52.620Z,67025.69
2023-04-06T03:18:24.722Z,66976.53
2023-04-06T03:20:56.522Z,67021.56
2023-04-06T03:23:29.118Z,67018.19
2023-04-06T03:26:00.310Z,67021.00
2023-04-06T03:28:27.825Z,66970.38
2023-04-06T03:31:04.541Z,66966.47
2023-04-06T03:33:52.986Z,67007.53
2023-04-06T03:36:29.889Z,66955.25
2023-04-06T03:38:58.173Z,66989.78
2023-04-06T03:41:30.391Z,66944.03
2023-04-06T03:44:03.151Z,66952.44
2023-04-06T03:46:31.758Z,66999.09
2023-04-06T03:48:59.955Z,66987.91
2023-04-06T03:51:28.758Z,66987.91
2023-04-06T03:53:56.133Z,66990.69
2023-04-06T03:56:23.343Z,66941.78
2023-04-06T03:58:51.836Z,66984.53
2023-04-06T04:01:21.756Z,66936.19
2023-04-06T04:03:52.269Z,66933.38
2023-04-06T04:06:19.571Z,66977.78
2023-04-06T04:08:46.930Z,66970.16
2023-04-06T04:11:14.139Z,66973.84
2023-04-06T04:13:41.346Z,66973.50
2023-04-06T04:16:10.034Z,66972.94
2023-04-06T04:18:37.695Z,66921.25
2023-04-06T04:21:07.398Z,66918.81
2023-04-06T04:23:36.710Z,66961.72
2023-04-06T04:26:04.571Z,66960.97
2023-04-06T04:28:31.843Z,66960.75
2023-04-06T04:31:02.061Z,66965.22
2023-04-06T04:33:32.859Z,66958.16
2023-04-06T04:36:05.943Z,66954.78
2023-04-06T04:38:39.170Z,66953.69
2023-04-06T04:41:09.519Z,66957.06
2023-04-06T04:43:39.291Z,66907.03
2023-04-06T04:46:08.026Z,66954.78
2023-04-06T04:48:46.686Z,66909.28
2023-04-06T04:51:13.999Z,66954.78
2023-04-06T04:54:00.430Z,66955.91
2023-04-06T04:56:31.453Z,66906.47
2023-04-06T04:59:09.668Z,66904.22
2023-04-06T05:01:53.675Z,66908.16
2023-04-06T05:04:31.850Z,66954.09
2023-04-06T05:07:13.631Z,66976.69
2023-04-06T05:09:42.544Z,66980.25
2023-04-06T05:12:10.086Z,66990.34
2023-04-06T05:14:46.246Z,67000.22
2023-04-06T05:17:16.548Z,67022.13
2023-04-06T05:19:46.123Z,67027.72
2023-04-06T05:22:18.537Z,66985.16
2023-04-06T05:24:58.439Z,67038.03
2023-04-06T05:27:26.346Z,67014.13
2023-04-06T05:30:00.508Z,67064.19
2023-04-06T05:32:29.446Z,67093.75
2023-04-06T05:34:59.583Z,67135.72
2023-04-06T05:37:27.180Z,67145.63
2023-04-06T05:39:54.263Z,67156.31
2023-04-06T05:42:23.512Z,67192.84
2023-04-06T05:44:54.340Z,67281.44
2023-04-06T05:47:22.151Z,67306.97
2023-04-06T05:49:55.986Z,67374.31
2023-04-06T05:52:32.313Z,67451.03
2023-04-06T05:55:02.701Z,67479.19
2023-04-06T05:57:34.136Z,67421.41
2023-04-06T06:00:04.663Z,67379.00
2023-04-06T06:02:47.201Z,67339.22
2023-04-06T06:05:19.936Z,67341.28
2023-04-06T06:07:49.898Z,67317.66
2023-04-06T06:10:18.270Z,67253.75
2023-04-06T06:12:45.620Z,67229.16
2023-04-06T06:15:15.281Z,67256.34
2023-04-06T06:17:46.127Z,67375.38
2023-04-06T06:20:13.509Z,67451.41
2023-04-06T06:22:41.234Z,67483.56
2023-04-06T06:25:12.420Z,67555.66
2023-04-06T06:27:39.603Z,67584.75
2023-04-06T06:30:07.715Z,67542.09
2023-04-06T06:32:38.417Z,67542.84
2023-04-06T06:35:05.828Z,67584.75
2023-04-06T06:37:33.949Z,67672.94
2023-04-06T06:40:02.704Z,67728.94
2023-04-06T06:42:32.223Z,67753.22
2023-04-06T06:45:22.727Z,67705.81
2023-04-06T06:47:51.305Z,67581.19
2023-04-06T06:50:22.206Z,67518.63
2023-04-06T06:52:49.750Z,67470.75
2023-04-06T06:55:20.196Z,67467.22
2023-04-06T06:57:47.537Z,67440.91
2023-04-06T07:00:15.646Z,67420.47
2023-04-06T07:02:44.402Z,67419.16
2023-04-06T07:05:26.846Z,67453.50
2023-04-06T07:07:57.511Z,67467.94
2023-04-06T07:10:27.033Z,67477.16
2023-04-06T07:12:57.823Z,67429.94
2023-04-06T07:15:25.811Z,67482.56
2023-04-06T07:17:53.491Z,67490.47
2023-04-06T07:20:25.754Z,67510.94
2023-04-06T07:22:53.227Z,67523.69
2023-04-06T07:25:21.163Z,67527.84
2023-04-06T07:27:52.618Z,67532.00
2023-04-06T07:30:20.493Z,67535.16
2023-04-06T07:32:49.011Z,67560.88
2023-04-06T07:35:17.444Z,67557.16
2023-04-06T07:37:44.935Z,67571.44
2023-04-06T07:40:14.057Z,67603.72
2023-04-06T07:42:42.453Z,67613.50
2023-04-06T07:45:11.242Z,67626.84
2023-04-06T07:47:41.556Z,67623.28
2023-04-06T07:50:10.054Z,67642.63
2023-04-06T07:52:41.911Z,67636.28
2023-04-06T07:55:13.851Z,67669.72
2023-04-06T07:57:41.152Z,67700.75
2023-04-06T08:00:12.552Z,67726.69
2023-04-06T08:02:40.533Z,67787.50
2023-04-06T08:05:08.286Z,67851.84
2023-04-06T08:07:39.034Z,67865.03
2023-04-06T08:10:06.442Z,67918.72
2023-04-06T08:12:36.574Z,67948.88
2023-04-06T08:15:06.917Z,67972.41
2023-04-06T08:17:35.125Z,67987.47
2023-04-06T08:20:04.695Z,67994.09
2023-04-06T08:22:37.396Z,68062.34
2023-04-06T08:25:10.682Z,68081.56
2023-04-06T08:27:43.625Z,68123.31
2023-04-06T08:30:17.434Z,68137.63
2023-04-06T08:32:47.621Z,68112.13
2023-04-06T08:35:14.844Z,68119.13
2023-04-06T08:37:43.245Z,68138.38
2023-04-06T08:40:16.122Z,68192.53
2023-04-06T08:42:50.648Z,68229.34
2023-04-06T08:45:23.213Z,68215.94
2023-04-06T08:47:59.253Z,68194.81
2023-04-06T08:50:31.568Z,68260.50
2023-04-06T08:52:59.818Z,68258.25
2023-04-06T08:55:28.744Z,68228.41
2023-04-06T08:57:56.962Z,68229.34
2023-04-06T09:00:26.255Z,68220.84
2023-04-06T09:02:58.816Z,68180.84
2023-04-06T09:05:26.825Z,68168.19
2023-04-06T09:07:54.146Z,68193.28
2023-04-06T09:10:26.142Z,68272.97
2023-04-06T09:13:06.327Z,68331.00
2023-04-06T09:15:36.577Z,68342.53
2023-04-06T09:18:06.993Z,68328.50
2023-04-06T09:20:40.265Z,68332.13
2023-04-06T09:23:21.664Z,68368.59
2023-04-06T09:25:51.786Z,68356.31
2023-04-06T09:28:22.076Z,68275.44
2023-04-06T09:30:50.679Z,68240.31
2023-04-06T09:33:26.737Z,68207.84
2023-04-06T09:35:55.354Z,68248.81
2023-04-06T09:38:25.443Z,68278.63
2023-04-06T09:41:01.239Z,68302.81
2023-04-06T09:43:29.551Z,68315.84
2023-04-06T09:45:59.292Z,68341.38
2023-04-06T09:48:31.212Z,68343.47
2023-04-06T09:51:07.552Z,68393.53
2023-04-06T09:53:40.368Z,68397.72
2023-04-06T09:56:17.840Z,68379.56
2023-04-06T09:58:54.901Z,68460.09
2023-04-06T10:01:24.667Z,68457.63
2023-04-06T10:04:11.430Z,68402.06
2023-04-06T10:06:39.926Z,68358.75
2023-04-06T10:09:09.197Z,68384.47
2023-04-06T10:11:39.512Z,68485.44
2023-04-06T10:14:08.637Z,68409.78
2023-04-06T10:16:37.334Z,68559.25
2023-04-06T10:19:30.439Z,68622.84
2023-04-06T10:22:04.067Z,68557.94
2023-04-06T10:24:34.837Z,68707.34
2023-04-06T10:27:03.447Z,68714.34
2023-04-06T10:29:51.205Z,68729.50
2023-04-06T10:32:18.573Z,68720.22
2023-04-06T10:34:51.695Z,68709.03
2023-04-06T10:37:20.308Z,68687.63
2023-04-06T10:40:04.073Z,68732.34
2023-04-06T10:42:45.382Z,68731.03
2023-04-06T10:45:23.739Z,68709.22
2023-04-06T10:48:00.594Z,68700.69
2023-04-06T10:50:33.421Z,68646.88
2023-04-06T10:53:02.005Z,68673.63
2023-04-06T10:55:30.281Z,68708.09
2023-04-06T10:57:57.458Z,68702.41
2023-04-06T11:00:26.095Z,68660.91
2023-04-06T11:03:05.377Z,68606.19
2023-04-06T11:05:38.766Z,68470.31
2023-04-06T11:08:14.058Z,68355.56
2023-04-06T11:10:41.413Z,68340.44
2023-04-06T11:13:14.066Z,68347.81
2023-04-06T11:15:44.373Z,68285.63
2023-04-06T11:18:12.543Z,68265.97
2023-04-06T11:20:40.152Z,68323.97
2023-04-06T11:23:08.417Z,68332.84
2023-04-06T11:25:36.275Z,68332.69
2023-04-06T11:28:03.410Z,68323.41
2023-04-06T11:30:31.455Z,68301.69
2023-04-06T11:33:03.659Z,68294.13
2023-04-06T11:35:33.695Z,68377.88
2023-04-06T11:38:06.846Z,68485.63
2023-04-06T11:40:34.273Z,68566.25
2023-04-06T11:43:01.393Z,68571.91
2023-04-06T11:45:28.692Z,68490.91
2023-04-06T11:48:03.223Z,68471.25
2023-04-06T11:50:36.766Z,68422.09
2023-04-06T11:53:04.244Z,68352.53
2023-04-06T11:55:39.423Z,68317.94
2023-04-06T11:58:08.008Z,68299.59
2023-04-06T12:00:35.843Z,68293.38
2023-04-06T12:03:02.986Z,68278.63
2023-04-06T12:05:30.208Z,68248.25
2023-04-06T12:08:00.121Z,68235.19
2023-04-06T12:10:33.131Z,68223.88
2023-04-06T12:13:02.756Z,68232.19
2023-04-06T12:15:30.320Z,68334.19
2023-04-06T12:17:59.275Z,68422.84
2023-04-06T12:20:30.910Z,68472.78
2023-04-06T12:22:57.964Z,68486.94
2023-04-06T12:25:25.188Z,68513.47
2023-04-06T12:27:54.729Z,68537.09
2023-04-06T12:30:22.162Z,68470.31
2023-04-06T12:32:53.626Z,68387.69
2023-04-06T12:35:22.124Z,68320.56
2023-04-06T12:37:49.470Z,68296.97
2023-04-06T12:40:19.894Z,68317.38
2023-04-06T12:42:47.880Z,68383.16
2023-04-06T12:45:14.983Z,68422.84
2023-04-06T12:47:42.365Z,68439.50
2023-04-06T12:50:09.920Z,68441.38
2023-04-06T12:52:37.591Z,68462.38
2023-04-06T12:55:07.878Z,68444.22
2023-04-06T12:57:35.038Z,68410.19
2023-04-06T13:00:02.987Z,68382.97
2023-04-06T13:02:31.847Z,68354.03
2023-04-06T13:04:59.139Z,68351.78
2023-04-06T13:07:26.919Z,68337.59
2023-04-06T13:09:54.958Z,68315.66
2023-04-06T13:12:22.094Z,68322.66
2023-04-06T13:14:54.425Z,68322.28
2023-04-06T13:17:22.176Z,68315.66
2023-04-06T13:19:49.391Z,68305.84
2023-04-06T13:22:17.026Z,68293.19
2023-04-06T13:24:44.222Z,68305.84
2023-04-06T13:27:12.490Z,68350.84
2023-04-06T13:29:39.722Z,68393.91
2023-04-06T13:32:06.951Z,68409.06
2023-04-06T13:34:34.202Z,68458.94
2023-04-06T13:37:01.301Z,68495.09
2023-04-06T13:39:28.483Z,68427.38
2023-04-06T13:41:57.182Z,68379.94
2023-04-06T13:44:24.421Z,68406.22
2023-04-06T13:46:51.570Z,68474.84
2023-04-06T13:49:18.660Z,68531.06
2023-04-06T13:51:45.922Z,68491.50
2023-04-06T13:54:15.566Z,68475.78
2023-04-06T13:56:42.746Z,68436.28
2023-04-06T13:59:09.865Z,68368.97
2023-04-06T14:01:38.502Z,68299.03
2023-04-06T14:04:05.741Z,68328.50
2023-04-06T14:06:32.907Z,68377.88
2023-04-06T14:09:00.600Z,68420.38
2023-04-06T14:11:28.045Z,68463.50
2023-04-06T14:13:57.793Z,68503.97
2023-04-06T14:16:25.803Z,68443.28
2023-04-06T14:18:53.347Z,68450.28
2023-04-06T14:21:21.127Z,68452.16
2023-04-06T14:23:48.262Z,68462.56
2023-04-06T14:26:16.224Z,68386.19
2023-04-06T14:28:46.344Z,68342.91
2023-04-06T14:31:23.564Z,68297.53
2023-04-06T14:33:51.301Z,68282.59
2023-04-06T14:36:18.648Z,68312.25
2023-04-06T14:38:48.179Z,68352.53
2023-04-06T14:41:20.698Z,68368.97
2023-04-06T14:43:48.554Z,68389.56
2023-04-06T14:46:19.488Z,68396.75
2023-04-06T14:48:49.683Z,68389.78
2023-04-06T14:51:17.742Z,68359.72
2023-04-06T14:53:48.297Z,68355.94
2023-04-06T14:56:27.172Z,68356.50
2023-04-06T14:58:54.840Z,68341.97
2023-04-06T15:01:22.286Z,68314.91
2023-04-06T15:03:53.867Z,68311.13
2023-04-06T15:06:21.910Z,68295.06
2023-04-06T15:08:52.508Z,68279.00
2023-04-06T15:11:19.624Z,68298.66
2023-04-06T15:13:47.194Z,68266.19
2023-04-06T15:16:15.614Z,68261.63
2023-04-06T15:18:42.810Z,68259.19
2023-04-06T15:21:12.084Z,68270.53
2023-04-06T15:23:39.189Z,68269.94
2023-04-06T15:26:06.354Z,68268.25
2023-04-06T15:28:34.011Z,68282.41
2023-04-06T15:31:04.254Z,68279.00
2023-04-06T15:33:31.523Z,68291.28
2023-04-06T15:35:58.645Z,68282.03
2023-04-06T15:38:25.933Z,68276.56
2023-04-06T15:40:53.171Z,68282.03
2023-04-06T15:43:20.376Z,68276.38
2023-04-06T15:45:47.973Z,68292.22
2023-04-06T15:48:18.105Z,68299.22
2023-04-06T15:50:45.297Z,68280.34
2023-04-06T15:53:12.829Z,68279.78
2023-04-06T15:55:41.331Z,68278.63
2023-04-06T15:58:08.520Z,68282.97
2023-04-06T16:00:35.833Z,68308.47
2023-04-06T16:03:03.290Z,68323.41
2023-04-06T16:05:34.866Z,68275.63
2023-04-06T16:08:10.787Z,68262.41
2023-04-06T16:10:38.035Z,68255.78
2023-04-06T16:13:05.132Z,68244.66
2023-04-06T16:15:32.268Z,68257.09
2023-04-06T16:17:59.855Z,68231.81
2023-04-06T16:20:27.029Z,68234.66
2023-04-06T16:22:56.941Z,68228.78
2023-04-06T16:25:24.094Z,68207.25
2023-04-06T16:27:54.264Z,68208.41
2023-04-06T16:30:21.512Z,68226.72
2023-04-06T16:32:51.782Z,68231.06
2023-04-06T16:35:20.525Z,68217.47
2023-04-06T16:37:52.746Z,68207.63
2023-04-06T16:40:20.722Z,68183.09
2023-04-06T16:42:48.366Z,68165.38
2023-04-06T16:45:17.918Z,68152.16
2023-04-06T16:47:45.385Z,68151.56
2023-04-06T16:50:12.491Z,68140.47
2023-04-06T16:52:39.596Z,68121.19
2023-04-06T16:55:07.504Z,68100.81
2023-04-06T16:57:34.699Z,68094.75
2023-04-06T17:00:02.376Z,68070.06
2023-04-06T17:02:29.964Z,68053.09
2023-04-06T17:04:57.192Z,68036.31
2023-04-06T17:07:32.325Z,68015.56
2023-04-06T17:10:01.425Z,67998.63
2023-04-06T17:12:31.959Z,67972.59
2023-04-06T17:14:59.026Z,67963.75
2023-04-06T17:17:26.239Z,67942.44
2023-04-06T17:19:53.358Z,67927.00
2023-04-06T17:22:23.523Z,67904.03
2023-04-06T17:24:50.702Z,67890.84
2023-04-06T17:27:19.146Z,67865.13
2023-04-06T17:30:03.713Z,67884.25
2023-04-06T17:32:31.001Z,67876.13
2023-04-06T17:34:58.132Z,67866.75
2023-04-06T17:37:25.356Z,67856.56
2023-04-06T17:39:52.553Z,67841.84
2023-04-06T17:42:19.980Z,67830.56
2023-04-06T17:44:53.327Z,67817.22
2023-04-06T17:47:20.940Z,67812.66
2023-04-06T17:49:49.868Z,67760.16
2023-04-06T17:52:17.053Z,67807.78
2023-04-06T17:54:47.682Z,67800.84
2023-04-06T17:57:20.013Z,67796.47
2023-04-06T17:59:47.163Z,67795.00
2023-04-06T18:02:15.094Z,67785.41
2023-04-06T18:04:44.290Z,67785.19
2023-04-06T18:07:11.845Z,67774.47
2023-04-06T18:09:39.890Z,67773.72
2023-04-06T18:12:07.622Z,67727.44
2023-04-06T18:14:34.913Z,67765.06
2023-04-06T18:17:02.068Z,67770.72
2023-04-06T18:19:32.163Z,67756.59
2023-04-06T18:21:59.352Z,67751.88
2023-04-06T18:24:41.297Z,67704.13
2023-04-06T18:27:11.253Z,67741.72
2023-04-06T18:29:39.322Z,67735.72
2023-04-06T18:32:06.926Z,67731.22
2023-04-06T18:34:34.196Z,67727.25
2023-04-06T18:37:02.451Z,67728.94
2023-04-06T18:39:29.704Z,67740.59
2023-04-06T18:41:57.016Z,67743.06
2023-04-06T18:44:24.423Z,67696.44
2023-04-06T18:46:54.950Z,67753.22
2023-04-06T18:49:22.878Z,67753.78
2023-04-06T18:51:50.015Z,67751.53
2023-04-06T18:54:17.394Z,67706.94
2023-04-06T18:56:46.682Z,67754.34
2023-04-06T18:59:14.211Z,67701.31
2023-04-06T19:01:47.519Z,67751.72
2023-04-06T19:04:18.160Z,67750.41
2023-04-06T19:06:54.008Z,67746.09
2023-04-06T19:09:21.778Z,67741.72
2023-04-06T19:11:49.002Z,67740.03
2023-04-06T19:14:16.242Z,67724.63
2023-04-06T19:16:53.867Z,67728.38
2023-04-06T19:19:21.287Z,67735.16
2023-04-06T19:21:49.454Z,67727.81
2023-04-06T19:24:18.352Z,67745.31
2023-04-06T19:26:46.227Z,67752.28
2023-04-06T19:29:16.175Z,67755.28
2023-04-06T19:31:43.541Z,67759.22
2023-04-06T19:34:11.307Z,67748.13
2023-04-06T19:36:41.154Z,67742.84
2023-04-06T19:39:08.675Z,67745.69
2023-04-06T19:41:39.549Z,67750.75
2023-04-06T19:44:07.091Z,67752.44
2023-04-06T19:46:40.513Z,67751.72
2023-04-06T19:49:07.909Z,67750.59
2023-04-06T19:51:36.369Z,67747.38
2023-04-06T19:54:06.870Z,67730.06
2023-04-06T19:56:34.688Z,67727.44
2023-04-06T19:59:01.856Z,67707.72
2023-04-06T20:01:29.202Z,67703.00
2023-04-06T20:03:56.513Z,67685.28
2023-04-06T20:06:33.230Z,67668.56
2023-04-06T20:09:01.227Z,67650.53
2023-04-06T20:11:28.700Z,67616.16
2023-04-06T20:13:58.028Z,67635.88
2023-04-06T20:16:28.938Z,67596.06
2023-04-06T20:18:58.323Z,67605.44
2023-04-06T20:21:26.126Z,67633.63
2023-04-06T20:23:53.681Z,67639.63
2023-04-06T20:26:21.725Z,67633.06
2023-04-06T20:28:48.987Z,67613.31
2023-04-06T20:31:19.064Z,67622.88
2023-04-06T20:33:46.261Z,67627.97
2023-04-06T20:36:13.393Z,67634.16
2023-04-06T20:38:40.773Z,67647.16
2023-04-06T20:41:08.606Z,67589.31
2023-04-06T20:43:36.489Z,67625.34
2023-04-06T20:46:04.453Z,67617.25
2023-04-06T20:48:33.647Z,67620.44
2023-04-06T20:51:06.737Z,67608.25
2023-04-06T20:53:36.886Z,67597.31
2023-04-06T20:56:04.160Z,67572.34
2023-04-06T20:58:31.485Z,67576.66
2023-04-06T21:00:58.765Z,67587.38
2023-04-06T21:03:28.163Z,67580.59
2023-04-06T21:06:00.696Z,67580.41
2023-04-06T21:08:27.950Z,67536.34
2023-04-06T21:10:55.673Z,67580.59
2023-04-06T21:13:22.888Z,67572.16
2023-04-06T21:15:51.709Z,67563.72
2023-04-06T21:18:19.185Z,67573.84
2023-04-06T21:20:46.405Z,67573.63
2023-04-06T21:23:13.480Z,67555.81
2023-04-06T21:25:40.745Z,67499.19
2023-04-06T21:28:07.924Z,67543.41
2023-04-06T21:30:39.949Z,67547.16
2023-04-06T21:33:07.548Z,67480.38
2023-04-06T21:35:38.955Z,67523.69
2023-04-06T21:38:06.622Z,67517.84
2023-04-06T21:40:33.963Z,67516.94
2023-04-06T21:43:01.229Z,67513.56
2023-04-06T21:45:31.258Z,67517.50
2023-04-06T21:48:01.670Z,67509.81
2023-04-06T21:50:31.832Z,67513.75
2023-04-06T21:52:58.963Z,67504.53
2023-04-06T21:55:26.184Z,67462.59
2023-04-06T21:57:53.347Z,67510.19
2023-04-06T22:00:21.063Z,67525.94
2023-04-06T22:02:48.406Z,67540.38
2023-04-06T22:05:15.765Z,67518.97
2023-04-06T22:07:46.578Z,67516.94
2023-04-06T22:10:14.054Z,67463.50
2023-04-06T22:12:44.209Z,67497.78
2023-04-06T22:15:13.073Z,67495.88
2023-04-06T22:17:43.351Z,67487.63
2023-04-06T22:20:10.724Z,67471.31
2023-04-06T22:22:38.207Z,67464.53
2023-04-06T22:25:09.389Z,67458.91
2023-04-06T22:27:36.514Z,67453.09
2023-04-06T22:30:06.809Z,67455.34
2023-04-06T22:32:33.971Z,67407.44
2023-04-06T22:35:01.127Z,67424.31
2023-04-06T22:37:31.338Z,67461.53
2023-04-06T22:39:58.454Z,67457.03
2023-04-06T22:42:27.065Z,67448.22
2023-04-06T22:44:54.356Z,67451.41
2023-04-06T22:47:21.898Z,67441.25
2023-04-06T22:49:50.890Z,67383.78
2023-04-06T22:52:18.088Z,67431.88
2023-04-06T22:54:45.477Z,67438.44
2023-04-06T22:57:12.914Z,67420.06
2023-04-06T22:59:40.081Z,67413.66
2023-04-06T23:02:07.831Z,67358.81
2023-04-06T23:04:35.916Z,67355.44
2023-04-06T23:07:03.132Z,67397.75
2023-04-06T23:09:30.492Z,67394.16
2023-04-06T23:11:57.643Z,67390.44
2023-04-06T23:14:30.580Z,67391.34
2023-04-06T23:16:57.812Z,67386.28
2023-04-06T23:19:25.087Z,67326.97
2023-04-06T23:21:52.561Z,67376.72
2023-04-06T23:24:19.722Z,67389.09
2023-04-06T23:26:46.904Z,67376.16
2023-04-06T23:29:14.198Z,67337.47
2023-04-06T23:31:41.367Z,67338.22
2023-04-06T23:34:09.114Z,67386.88
2023-04-06T23:36:37.082Z,67356.78
2023-04-06T23:39:04.512Z,67346.09
2023-04-06T23:41:31.725Z,67389.66
2023-04-06T23:43:59.479Z,67392.50
2023-04-06T23:46:26.713Z,67384.94
2023-04-06T23:48:53.758Z,67326.41
2023-04-06T23:51:21.629Z,67323.41
2023-04-06T23:53:48.770Z,67325.28
2023-04-06T23:56:16.044Z,67361.88
2023-04-06T23:58:43.362Z,67364.72
